createdAt,value
2023-02-15T00:00:18.291Z,2.84
2023-02-15T00:02:44.734Z,2.79
2023-02-15T00:05:11.259Z,2.74
2023-02-15T00:07:37.872Z,2.69
2023-02-15T00:10:05.418Z,2.65
2023-02-15T00:12:31.850Z,2.61
2023-02-15T00:14:58.338Z,2.56
2023-02-15T00:17:24.985Z,2.48
2023-02-15T00:19:51.500Z,2.47
2023-02-15T00:22:17.976Z,2.44
2023-02-15T00:24:44.487Z,2.40
2023-02-15T00:27:10.950Z,2.38
2023-02-15T00:29:37.496Z,2.35
2023-02-15T00:32:04.721Z,2.30
2023-02-15T00:34:31.230Z,2.29
2023-02-15T00:36:57.832Z,2.25
2023-02-15T00:39:24.363Z,2.23
2023-02-15T00:41:50.987Z,2.19
2023-02-15T00:44:18.149Z,2.17
2023-02-15T00:46:44.650Z,2.15
2023-02-15T00:49:11.556Z,2.12
2023-02-15T00:51:38.452Z,2.08
2023-02-15T00:54:05.439Z,2.05
2023-02-15T00:56:32.185Z,2.04
2023-02-15T00:58:58.712Z,2.01
2023-02-15T01:01:25.305Z,2.00
2023-02-15T01:03:52.270Z,1.97
2023-02-15T01:06:19.023Z,1.95
2023-02-15T01:08:46.856Z,1.92
2023-02-15T01:11:19.696Z,1.91
2023-02-15T01:13:46.148Z,1.89
2023-02-15T01:16:12.625Z,1.88
2023-02-15T01:18:39.186Z,1.85
2023-02-15T01:21:14.275Z,1.80
2023-02-15T01:23:43.883Z,1.85
2023-02-15T01:26:12.630Z,1.82
2023-02-15T01:28:39.161Z,1.81
2023-02-15T01:31:14.518Z,1.74
2023-02-15T01:33:41.609Z,1.77
2023-02-15T01:36:10.218Z,1.76
2023-02-15T01:38:36.977Z,1.73
2023-02-15T01:41:06.016Z,1.70
2023-02-15T01:43:43.617Z,1.67
2023-02-15T01:46:13.461Z,1.65
2023-02-15T01:48:53.170Z,1.63
2023-02-15T01:51:24.342Z,1.57
2023-02-15T01:54:00.943Z,1.62
2023-02-15T01:56:33.033Z,1.54
2023-02-15T01:59:01.004Z,1.59
2023-02-15T02:01:28.813Z,1.59
2023-02-15T02:04:09.418Z,1.55
2023-02-15T02:06:37.168Z,1.51
2023-02-15T02:09:03.954Z,1.56
2023-02-15T02:11:30.661Z,1.55
2023-02-15T02:13:57.451Z,1.55
2023-02-15T02:16:53.232Z,1.53
2023-02-15T02:19:37.914Z,1.46
2023-02-15T02:22:22.638Z,1.51
2023-02-15T02:24:49.061Z,1.51
2023-02-15T02:27:18.570Z,1.50
2023-02-15T02:30:06.601Z,1.48
2023-02-15T02:33:03.464Z,1.45
2023-02-15T02:35:57.701Z,1.45
2023-02-15T02:38:38.216Z,1.45
2023-02-15T02:41:18.606Z,1.42
2023-02-15T02:44:13.433Z,1.34
2023-02-15T02:47:04.233Z,1.39
2023-02-15T02:49:42.934Z,1.37
2023-02-15T02:52:34.378Z,1.35
2023-02-15T02:55:02.569Z,1.33
2023-02-15T02:57:30.688Z,1.30
2023-02-15T03:00:00.492Z,1.28
2023-02-15T03:02:32.790Z,1.21
2023-02-15T03:05:05.912Z,1.22
2023-02-15T03:07:35.122Z,1.18
2023-02-15T03:10:04.414Z,1.23
2023-02-15T03:12:34.925Z,1.26
2023-02-15T03:15:16.944Z,1.22
2023-02-15T03:17:48.122Z,1.22
2023-02-15T03:20:23.772Z,1.21
2023-02-15T03:22:56.479Z,1.19
2023-02-15T03:25:27.731Z,1.20
2023-02-15T03:28:04.683Z,1.20
2023-02-15T03:30:33.312Z,1.16
2023-02-15T03:33:01.682Z,1.16
2023-02-15T03:35:37.773Z,1.08
2023-02-15T03:38:08.437Z,1.08
2023-02-15T03:40:41.811Z,1.06
2023-02-15T03:43:13.096Z,1.11
2023-02-15T03:45:43.241Z,1.06
2023-02-15T03:48:10.145Z,1.13
2023-02-15T03:50:38.983Z,1.11
2023-02-15T03:53:09.178Z,1.05
2023-02-15T03:55:36.597Z,1.10
2023-02-15T03:58:04.109Z,1.12
2023-02-15T04:00:36.088Z,1.11
2023-02-15T04:03:29.962Z,1.13
2023-02-15T04:05:56.516Z,1.15
2023-02-15T04:08:22.984Z,1.14
2023-02-15T04:10:49.465Z,1.17
2023-02-15T04:13:16.002Z,1.18
2023-02-15T04:15:42.512Z,1.19
2023-02-15T04:18:09.138Z,1.19
2023-02-15T04:20:35.648Z,1.17
2023-02-15T04:23:02.103Z,1.20
2023-02-15T04:25:28.575Z,1.19
2023-02-15T04:27:55.742Z,1.20
2023-02-15T04:30:25.812Z,1.19
2023-02-15T04:32:52.770Z,1.21
2023-02-15T04:35:19.629Z,1.22
2023-02-15T04:37:46.145Z,1.21
2023-02-15T04:40:15.984Z,1.21
2023-02-15T04:42:43.335Z,1.21
2023-02-15T04:45:09.847Z,1.22
2023-02-15T04:47:36.585Z,1.21
2023-02-15T04:50:03.643Z,1.20
2023-02-15T04:52:30.148Z,1.20
2023-02-15T04:54:56.591Z,1.20
2023-02-15T04:57:23.084Z,1.21
2023-02-15T04:59:49.533Z,1.18
2023-02-15T05:02:16.030Z,1.17
2023-02-15T05:04:42.486Z,1.16
2023-02-15T05:07:09.009Z,1.15
2023-02-15T05:09:35.465Z,1.15
2023-02-15T05:12:01.968Z,1.15
2023-02-15T05:14:28.470Z,1.16
2023-02-15T05:16:55.128Z,1.17
2023-02-15T05:19:21.645Z,1.19
2023-02-15T05:21:48.128Z,1.26
2023-02-15T05:24:14.674Z,1.34
2023-02-15T05:26:41.181Z,1.42
2023-02-15T05:29:08.712Z,1.50
2023-02-15T05:31:36.306Z,1.59
2023-02-15T05:34:03.277Z,1.65
2023-02-15T05:36:29.961Z,1.70
2023-02-15T05:38:56.832Z,1.78
2023-02-15T05:41:23.373Z,1.84
2023-02-15T05:43:49.848Z,1.89
2023-02-15T05:46:16.426Z,1.95
2023-02-15T05:48:42.904Z,2.02
2023-02-15T05:51:12.337Z,2.06
2023-02-15T05:53:39.687Z,2.11
2023-02-15T05:56:08.171Z,2.14
2023-02-15T05:58:37.645Z,2.13
2023-02-15T06:01:16.781Z,2.12
2023-02-15T06:03:44.173Z,2.20
2023-02-15T06:06:10.813Z,2.20
2023-02-15T06:08:38.460Z,2.22
2023-02-15T06:11:05.546Z,2.25
2023-02-15T06:13:32.843Z,2.30
2023-02-15T06:15:59.415Z,2.31
2023-02-15T06:18:26.577Z,2.38
2023-02-15T06:20:53.406Z,2.39
2023-02-15T06:23:19.882Z,2.44
2023-02-15T06:25:47.180Z,2.50
2023-02-15T06:28:14.097Z,2.55
2023-02-15T06:30:40.857Z,2.58
2023-02-15T06:33:07.395Z,2.62
2023-02-15T06:35:33.830Z,2.66
2023-02-15T06:38:00.371Z,2.69
2023-02-15T06:40:26.920Z,2.72
2023-02-15T06:42:53.411Z,2.77
2023-02-15T06:45:19.894Z,2.80
2023-02-15T06:47:46.373Z,2.83
2023-02-15T06:50:12.835Z,2.87
2023-02-15T06:52:39.330Z,2.89
2023-02-15T06:55:06.300Z,2.91
2023-02-15T06:57:32.826Z,2.93
2023-02-15T06:59:59.332Z,2.97
2023-02-15T07:02:26.011Z,2.98
2023-02-15T07:04:52.515Z,3.00
2023-02-15T07:07:19.885Z,3.00
2023-02-15T07:09:46.333Z,3.01
2023-02-15T07:12:12.780Z,3.02
2023-02-15T07:14:39.293Z,3.03
2023-02-15T07:17:11.663Z,3.05
2023-02-15T07:19:41.364Z,3.06
2023-02-15T07:22:07.898Z,3.06
2023-02-15T07:24:34.417Z,3.08
2023-02-15T07:27:00.905Z,3.09
2023-02-15T07:29:27.441Z,3.10
2023-02-15T07:31:53.922Z,3.10
2023-02-15T07:34:20.447Z,3.13
2023-02-15T07:36:46.889Z,3.16
2023-02-15T07:39:13.626Z,3.17
2023-02-15T07:41:40.174Z,3.19
2023-02-15T07:44:12.383Z,3.22
2023-02-15T07:46:38.956Z,3.25
2023-02-15T07:49:05.488Z,3.27
2023-02-15T07:51:32.016Z,3.26
2023-02-15T07:53:58.493Z,3.32
2023-02-15T07:56:25.049Z,3.36
2023-02-15T07:58:51.725Z,3.40
2023-02-15T08:01:27.665Z,3.43
2023-02-15T08:03:55.495Z,3.47
2023-02-15T08:06:24.108Z,3.46
2023-02-15T08:08:50.667Z,3.55
2023-02-15T08:11:21.295Z,3.54
2023-02-15T08:13:49.501Z,3.64
2023-02-15T08:16:15.982Z,3.70
2023-02-15T08:18:42.513Z,3.75
2023-02-15T08:21:08.990Z,3.81
2023-02-15T08:23:35.452Z,3.86
2023-02-15T08:26:02.154Z,3.93
2023-02-15T08:28:28.897Z,4.00
2023-02-15T08:30:55.366Z,4.07
2023-02-15T08:33:21.879Z,4.16
2023-02-15T08:35:48.331Z,4.24
2023-02-15T08:38:15.028Z,4.31
2023-02-15T08:40:41.510Z,4.43
2023-02-15T08:43:07.961Z,4.55
2023-02-15T08:45:34.460Z,4.67
2023-02-15T08:48:00.980Z,4.81
2023-02-15T08:50:27.557Z,4.93
2023-02-15T08:52:54.080Z,5.07
2023-02-15T08:55:20.540Z,5.23
2023-02-15T08:57:47.024Z,5.37
2023-02-15T09:00:14.006Z,5.57
2023-02-15T09:02:40.517Z,5.80
2023-02-15T09:05:07.368Z,6.06
2023-02-15T09:07:33.841Z,6.44
2023-02-15T09:10:00.311Z,6.81
2023-02-15T09:12:26.793Z,7.22
2023-02-15T09:14:53.232Z,7.63
2023-02-15T09:17:19.689Z,7.97
2023-02-15T09:19:46.174Z,8.27
2023-02-15T09:22:12.615Z,8.56
2023-02-15T09:24:39.087Z,8.87
2023-02-15T09:27:05.577Z,9.14
2023-02-15T09:29:32.071Z,9.39
2023-02-15T09:31:58.573Z,9.59
2023-02-15T09:34:25.093Z,9.73
2023-02-15T09:36:51.843Z,9.88
2023-02-15T09:39:21.382Z,10.03
2023-02-15T09:41:50.484Z,10.27
2023-02-15T09:45:01.112Z,10.43
2023-02-15T09:47:46.383Z,10.68
2023-02-15T09:50:31.343Z,10.94
2023-02-15T09:53:25.522Z,11.05
2023-02-15T09:55:51.944Z,11.13
2023-02-15T09:58:33.247Z,11.16
2023-02-15T10:01:14.873Z,11.26
2023-02-15T10:03:50.333Z,11.29
2023-02-15T10:06:28.405Z,11.29
2023-02-15T10:09:09.360Z,11.32
2023-02-15T10:11:44.722Z,11.37
2023-02-15T10:14:32.979Z,11.49
2023-02-15T10:17:09.434Z,11.63
2023-02-15T10:19:43.319Z,11.85
2023-02-15T10:22:38.633Z,12.09
2023-02-15T10:25:28.142Z,12.42
2023-02-15T10:27:54.640Z,12.67
2023-02-15T10:30:51.706Z,12.96
2023-02-15T10:33:41.056Z,13.14
2023-02-15T10:36:22.485Z,13.37
2023-02-15T10:39:25.239Z,13.54
2023-02-15T10:42:10.292Z,13.63
2023-02-15T10:45:14.894Z,13.71
2023-02-15T10:47:41.335Z,13.69
2023-02-15T10:50:22.998Z,13.72
2023-02-15T10:53:06.210Z,13.68
2023-02-15T10:55:48.188Z,13.55
2023-02-15T10:58:51.268Z,13.40
2023-02-15T11:01:51.177Z,13.34
2023-02-15T11:04:17.692Z,13.28
2023-02-15T11:06:57.673Z,13.23
2023-02-15T11:09:30.221Z,13.16
2023-02-15T11:11:58.474Z,13.11
2023-02-15T11:14:38.446Z,13.04
2023-02-15T11:17:14.948Z,13.00
2023-02-15T11:20:02.728Z,12.85
2023-02-15T11:22:33.070Z,12.81
2023-02-15T11:25:02.378Z,12.76
2023-02-15T11:27:33.232Z,12.69
2023-02-15T11:30:18.386Z,12.66
2023-02-15T11:32:47.765Z,12.65
2023-02-15T11:35:14.146Z,12.63
2023-02-15T11:38:06.269Z,12.61
2023-02-15T11:40:55.332Z,12.58
2023-02-15T11:43:31.318Z,12.61
2023-02-15T11:45:58.000Z,12.65
2023-02-15T11:48:24.714Z,12.67
2023-02-15T11:50:51.222Z,12.72
2023-02-15T11:53:23.696Z,12.74
2023-02-15T11:55:50.681Z,12.76
2023-02-15T11:58:29.476Z,12.77
2023-02-15T12:01:16.072Z,12.80
2023-02-15T12:03:42.560Z,12.90
2023-02-15T12:06:17.533Z,12.94
2023-02-15T12:08:51.265Z,13.05
2023-02-15T12:11:23.192Z,13.05
2023-02-15T12:13:58.220Z,13.09
2023-02-15T12:16:25.727Z,13.16
2023-02-15T12:18:55.854Z,13.19
2023-02-15T12:21:31.280Z,13.16
2023-02-15T12:24:33.461Z,13.14
2023-02-15T12:27:07.234Z,13.20
2023-02-15T12:29:42.536Z,13.24
2023-02-15T12:32:19.451Z,13.28
2023-02-15T12:34:46.899Z,13.32
2023-02-15T12:37:26.474Z,13.31
2023-02-15T12:39:57.931Z,13.41
2023-02-15T12:42:25.114Z,13.55
2023-02-15T12:45:20.695Z,13.66
2023-02-15T12:47:47.461Z,13.76
2023-02-15T12:50:24.624Z,13.83
2023-02-15T12:52:52.456Z,13.92
2023-02-15T12:55:24.566Z,14.00
2023-02-15T12:58:09.594Z,14.11
2023-02-15T13:00:36.200Z,14.25
2023-02-15T13:03:03.756Z,14.39
2023-02-15T13:05:45.125Z,14.57
2023-02-15T13:08:16.353Z,14.65
2023-02-15T13:10:52.949Z,14.77
2023-02-15T13:13:23.391Z,14.82
2023-02-15T13:15:53.292Z,14.94
2023-02-15T13:18:53.166Z,15.06
2023-02-15T13:21:24.951Z,15.17
2023-02-15T13:24:00.108Z,15.31
2023-02-15T13:26:30.596Z,15.36
2023-02-15T13:29:01.964Z,15.42
2023-02-15T13:31:30.115Z,15.45
2023-02-15T13:34:13.227Z,15.57
2023-02-15T13:36:50.287Z,15.61
2023-02-15T13:39:39.242Z,15.64
2023-02-15T13:42:23.540Z,15.71
2023-02-15T13:45:11.227Z,15.77
2023-02-15T13:48:02.925Z,15.79
2023-02-15T13:50:47.776Z,15.81
2023-02-15T13:53:47.588Z,15.82
2023-02-15T13:56:49.840Z,15.80
2023-02-15T13:59:34.401Z,15.83
2023-02-15T14:02:25.618Z,15.90
2023-02-15T14:05:31.144Z,15.90
2023-02-15T14:08:39.640Z,16.04
2023-02-15T14:11:21.181Z,16.14
2023-02-15T14:14:08.026Z,16.26
2023-02-15T14:17:07.053Z,16.36
2023-02-15T14:19:52.567Z,16.49
2023-02-15T14:22:24.528Z,16.62
2023-02-15T14:25:06.545Z,16.67
2023-02-15T14:27:57.067Z,16.77
2023-02-15T14:30:34.265Z,16.86
2023-02-15T14:33:08.867Z,17.00
2023-02-15T14:35:36.446Z,17.07
2023-02-15T14:38:19.357Z,17.08
2023-02-15T14:40:57.779Z,17.20
2023-02-15T14:43:33.432Z,17.34
2023-02-15T14:46:32.262Z,17.43
2023-02-15T14:49:31.247Z,17.47
2023-02-15T14:52:00.204Z,17.43
2023-02-15T14:54:26.581Z,17.46
2023-02-15T14:57:02.338Z,17.50
2023-02-15T14:59:43.803Z,17.59
2023-02-15T15:02:10.192Z,17.66
2023-02-15T15:04:42.584Z,17.67
2023-02-15T15:07:20.011Z,17.76
2023-02-15T15:09:59.022Z,17.89
2023-02-15T15:12:25.438Z,18.03
2023-02-15T15:14:53.486Z,18.06
2023-02-15T15:17:35.089Z,17.94
2023-02-15T15:20:34.869Z,17.76
2023-02-15T15:23:16.731Z,17.67
2023-02-15T15:25:46.941Z,17.67
2023-02-15T15:28:35.210Z,17.70
2023-02-15T15:31:01.795Z,17.72
2023-02-15T15:33:56.336Z,17.70
2023-02-15T15:37:11.044Z,17.67
2023-02-15T15:40:26.521Z,17.64
2023-02-15T15:43:08.831Z,17.57
2023-02-15T15:45:37.943Z,17.48
2023-02-15T15:48:31.179Z,17.32
2023-02-15T15:51:00.549Z,17.23
2023-02-15T15:53:30.506Z,17.14
2023-02-15T15:56:04.380Z,16.92
2023-02-15T15:58:31.570Z,16.87
2023-02-15T16:01:07.197Z,16.73
2023-02-15T16:03:33.752Z,16.65
2023-02-15T16:06:00.722Z,16.47
2023-02-15T16:08:27.236Z,16.33
2023-02-15T16:10:53.672Z,16.19
2023-02-15T16:13:20.125Z,16.05
2023-02-15T16:15:48.617Z,15.85
2023-02-15T16:18:17.621Z,15.74
2023-02-15T16:20:52.735Z,15.63
2023-02-15T16:23:37.566Z,15.46
2023-02-15T16:26:25.848Z,15.31
2023-02-15T16:28:54.315Z,15.20
2023-02-15T16:31:22.770Z,15.06
2023-02-15T16:33:53.154Z,14.99
2023-02-15T16:36:26.780Z,14.89
2023-02-15T16:38:53.221Z,14.80
2023-02-15T16:41:24.372Z,14.70
2023-02-15T16:43:53.272Z,14.62
2023-02-15T16:46:27.867Z,14.51
2023-02-15T16:48:59.471Z,14.43
2023-02-15T16:51:28.821Z,14.42
2023-02-15T16:53:57.597Z,14.28
2023-02-15T16:56:27.400Z,14.19
2023-02-15T16:58:56.125Z,14.16
2023-02-15T17:01:29.697Z,14.06
2023-02-15T17:04:28.098Z,13.93
2023-02-15T17:07:06.763Z,13.88
2023-02-15T17:09:34.242Z,13.83
2023-02-15T17:12:01.188Z,13.78
2023-02-15T17:14:30.032Z,13.74
2023-02-15T17:17:07.466Z,13.63
2023-02-15T17:19:41.503Z,13.61
2023-02-15T17:22:08.251Z,13.59
2023-02-15T17:24:40.666Z,13.53
2023-02-15T17:27:21.768Z,13.46
2023-02-15T17:29:52.222Z,13.41
2023-02-15T17:32:23.164Z,13.39
2023-02-15T17:35:08.581Z,13.35
2023-02-15T17:37:38.098Z,13.31
2023-02-15T17:40:21.714Z,13.27
2023-02-15T17:42:48.603Z,13.25
2023-02-15T17:45:15.974Z,13.23
2023-02-15T17:47:42.830Z,13.21
2023-02-15T17:50:26.652Z,13.20
2023-02-15T17:52:56.184Z,13.17
2023-02-15T17:55:24.066Z,13.12
2023-02-15T17:57:50.542Z,13.15
2023-02-15T18:00:17.194Z,13.13
2023-02-15T18:02:44.514Z,13.14
2023-02-15T18:05:14.475Z,13.11
2023-02-15T18:07:40.970Z,13.12
2023-02-15T18:10:19.065Z,13.04
2023-02-15T18:12:45.603Z,13.08
2023-02-15T18:15:13.055Z,13.08
2023-02-15T18:17:44.003Z,13.05
2023-02-15T18:20:25.756Z,13.01
2023-02-15T18:22:52.331Z,13.05
2023-02-15T18:25:21.789Z,13.04
2023-02-15T18:27:48.420Z,13.02
2023-02-15T18:30:24.938Z,13.00
2023-02-15T18:32:53.865Z,12.98
2023-02-15T18:35:24.329Z,12.92
2023-02-15T18:37:52.834Z,12.93
2023-02-15T18:40:21.893Z,12.90
2023-02-15T18:42:48.497Z,12.87
2023-02-15T18:45:29.334Z,12.83
2023-02-15T18:47:55.866Z,12.81
2023-02-15T18:50:27.241Z,12.78
2023-02-15T18:52:53.850Z,12.75
2023-02-15T18:55:23.440Z,12.71
2023-02-15T18:57:52.296Z,12.69
2023-02-15T19:00:27.661Z,12.66
2023-02-15T19:02:55.315Z,12.63
2023-02-15T19:05:22.513Z,12.59
2023-02-15T19:07:50.854Z,12.54
2023-02-15T19:10:23.076Z,12.51
2023-02-15T19:12:50.513Z,12.49
2023-02-15T19:15:28.207Z,12.49
2023-02-15T19:17:54.780Z,12.46
2023-02-15T19:20:42.661Z,12.42
2023-02-15T19:23:17.478Z,12.47
2023-02-15T19:25:44.033Z,12.46
2023-02-15T19:28:19.412Z,12.40
2023-02-15T19:30:46.023Z,12.44
2023-02-15T19:33:18.596Z,12.38
2023-02-15T19:35:48.646Z,12.40
2023-02-15T19:38:19.282Z,12.35
2023-02-15T19:40:46.649Z,12.39
2023-02-15T19:43:17.782Z,12.34
2023-02-15T19:45:44.834Z,12.38
2023-02-15T19:48:14.437Z,12.35
2023-02-15T19:50:41.894Z,12.35
2023-02-15T19:53:18.027Z,12.29
2023-02-15T19:55:44.548Z,12.34
2023-02-15T19:58:12.547Z,12.30
2023-02-15T20:00:39.152Z,12.30
2023-02-15T20:03:05.946Z,12.29
2023-02-15T20:05:34.895Z,12.22
2023-02-15T20:08:01.750Z,12.21
2023-02-15T20:10:30.846Z,12.17
2023-02-15T20:12:58.310Z,12.20
2023-02-15T20:15:28.641Z,12.17
2023-02-15T20:17:56.824Z,12.14
2023-02-15T20:20:28.956Z,12.12
2023-02-15T20:22:55.924Z,12.10
2023-02-15T20:25:27.981Z,12.03
2023-02-15T20:27:55.485Z,12.07
2023-02-15T20:30:24.861Z,12.05
2023-02-15T20:32:51.472Z,12.04
2023-02-15T20:35:20.702Z,12.02
2023-02-15T20:37:49.713Z,12.02
2023-02-15T20:40:19.471Z,11.98
2023-02-15T20:42:46.309Z,12.00
2023-02-15T20:45:19.710Z,11.94
2023-02-15T20:47:47.584Z,11.98
2023-02-15T20:50:29.916Z,11.93
2023-02-15T20:52:58.778Z,11.99
2023-02-15T20:55:28.394Z,11.97
2023-02-15T20:57:55.495Z,11.98
2023-02-15T21:00:24.500Z,11.97
2023-02-15T21:02:55.482Z,11.92
2023-02-15T21:05:24.774Z,11.96
2023-02-15T21:07:53.340Z,11.94
2023-02-15T21:10:23.372Z,11.89
2023-02-15T21:12:51.587Z,11.96
2023-02-15T21:15:30.390Z,11.94
2023-02-15T21:17:58.498Z,11.94
2023-02-15T21:20:25.787Z,11.94
2023-02-15T21:22:52.484Z,11.94
2023-02-15T21:25:26.221Z,11.89
2023-02-15T21:27:53.105Z,11.95
2023-02-15T21:30:21.731Z,11.93
2023-02-15T21:32:48.466Z,11.93
2023-02-15T21:35:15.782Z,11.93
2023-02-15T21:37:44.195Z,11.90
2023-02-15T21:40:14.051Z,11.88
2023-02-15T21:42:40.618Z,11.86
2023-02-15T21:45:17.970Z,11.76
2023-02-15T21:47:44.504Z,11.82
2023-02-15T21:50:15.433Z,11.81
2023-02-15T21:52:41.959Z,11.80
2023-02-15T21:55:14.171Z,11.81
2023-02-15T21:57:40.733Z,11.81
2023-02-15T22:00:14.102Z,11.74
2023-02-15T22:02:43.193Z,11.71
2023-02-15T22:05:18.194Z,11.73
2023-02-15T22:07:45.189Z,11.73
2023-02-15T22:10:12.098Z,11.70
2023-02-15T22:12:39.545Z,11.69
2023-02-15T22:15:06.586Z,11.65
2023-02-15T22:17:33.267Z,11.61
2023-02-15T22:20:00.271Z,11.56
2023-02-15T22:22:26.826Z,11.51
2023-02-15T22:24:53.298Z,11.45
2023-02-15T22:27:22.937Z,11.39
2023-02-15T22:29:49.980Z,11.29
2023-02-15T22:32:24.756Z,11.21
2023-02-15T22:34:52.830Z,11.16
2023-02-15T22:37:19.654Z,11.10
2023-02-15T22:39:46.374Z,11.04
2023-02-15T22:42:23.307Z,10.93
2023-02-15T22:44:52.902Z,10.82
2023-02-15T22:47:25.083Z,10.79
2023-02-15T22:49:52.021Z,10.70
2023-02-15T22:52:18.702Z,10.61
2023-02-15T22:54:45.223Z,10.53
2023-02-15T22:57:31.667Z,10.46
2023-02-15T22:59:58.721Z,10.42
2023-02-15T23:02:25.349Z,10.35
2023-02-15T23:04:51.913Z,10.30
2023-02-15T23:07:19.551Z,10.24
2023-02-15T23:09:46.503Z,10.18
2023-02-15T23:12:29.477Z,10.12
2023-02-15T23:14:57.180Z,10.06
2023-02-15T23:17:23.635Z,9.98
2023-02-15T23:19:50.120Z,9.90
2023-02-15T23:22:18.148Z,9.78
2023-02-15T23:24:51.778Z,9.74
2023-02-15T23:27:18.794Z,9.70
2023-02-15T23:29:46.008Z,9.66
2023-02-15T23:32:14.146Z,9.58
2023-02-15T23:34:41.641Z,9.51
2023-02-15T23:37:12.517Z,9.43
2023-02-15T23:39:39.060Z,9.39
2023-02-15T23:42:15.380Z,9.29
2023-02-15T23:44:44.226Z,9.22
2023-02-15T23:47:30.082Z,9.21
2023-02-15T23:49:56.607Z,9.16
2023-02-15T23:52:23.034Z,9.11
2023-02-15T23:54:49.510Z,9.05
2023-02-15T23:57:15.975Z,8.99
2023-02-15T23:59:44.617Z,8.93
